createdAt,value
2023-03-03T00:03:55.799Z,97048.38
2023-03-03T00:08:58.051Z,97048.38
2023-03-03T00:14:01.336Z,97047.59
2023-03-03T00:19:03.767Z,97053.78
2023-03-03T00:24:22.105Z,97049.94
2023-03-03T00:29:31.309Z,97046.81
2023-03-03T00:34:34.176Z,97043.31
2023-03-03T00:39:37.550Z,97039.84
2023-03-03T00:44:42.844Z,97044.84
2023-03-03T00:49:44.846Z,97036.00
2023-03-03T00:54:47.008Z,97029.44
2023-03-03T00:59:50.602Z,97024.00
2023-03-03T01:04:56.285Z,97021.69
2023-03-03T01:09:58.291Z,97017.06
2023-03-03T01:15:02.100Z,97017.44
2023-03-03T01:20:05.037Z,97012.00
2023-03-03T01:25:07.769Z,97010.09
2023-03-03T01:30:12.069Z,97003.91
2023-03-03T01:35:14.581Z,97012.38
2023-03-03T01:40:19.740Z,97002.75
2023-03-03T01:45:25.549Z,97000.03
2023-03-03T01:50:43.866Z,96993.84
2023-03-03T01:55:47.685Z,96990.34
2023-03-03T02:00:57.613Z,96995.38
2023-03-03T02:06:03.547Z,96993.06
2023-03-03T02:11:06.560Z,96995.38
2023-03-03T02:16:09.852Z,97000.00
2023-03-03T02:21:15.489Z,96992.28
2023-03-03T02:26:22.781Z,96989.97
2023-03-03T02:31:28.092Z,96991.84
2023-03-03T02:36:31.906Z,96984.16
2023-03-03T02:41:41.038Z,96989.19
2023-03-03T02:46:44.719Z,96979.09
2023-03-03T02:51:46.630Z,96986.84
2023-03-03T02:56:50.216Z,96987.63
2023-03-03T03:01:52.463Z,96995.31
2023-03-03T03:06:55.447Z,96996.47
2023-03-03T03:12:02.335Z,97000.63
2023-03-03T03:17:04.874Z,96991.75
2023-03-03T03:22:06.843Z,96987.91
2023-03-03T03:27:10.673Z,96989.81
2023-03-03T03:32:12.846Z,96995.16
2023-03-03T03:37:15.425Z,96999.81
2023-03-03T03:42:18.721Z,97007.94
2023-03-03T03:47:20.723Z,96995.94
2023-03-03T03:52:22.707Z,96995.47
2023-03-03T03:57:26.733Z,96981.25
2023-03-03T04:02:28.808Z,96979.72
2023-03-03T04:07:30.919Z,96978.56
2023-03-03T04:12:38.625Z,96972.41
2023-03-03T04:17:41.038Z,96969.69
2023-03-03T04:22:43.438Z,96975.50
2023-03-03T04:27:46.812Z,96982.84
2023-03-03T04:32:49.628Z,96980.84
2023-03-03T04:37:51.593Z,96976.59
2023-03-03T04:42:54.866Z,96966.53
2023-03-03T04:47:56.879Z,96967.25
2023-03-03T04:52:58.893Z,96976.53
2023-03-03T04:58:02.143Z,96973.41
2023-03-03T05:03:04.246Z,96995.81
2023-03-03T05:08:06.721Z,97002.78
2023-03-03T05:13:10.213Z,97000.88
2023-03-03T05:18:12.371Z,97003.13
2023-03-03T05:23:14.366Z,96999.59
2023-03-03T05:28:18.249Z,97007.41
2023-03-03T05:33:20.200Z,97007.38
2023-03-03T05:38:22.764Z,97000.44
2023-03-03T05:43:26.180Z,97000.44
2023-03-03T05:48:28.390Z,97019.38
2023-03-03T05:53:30.378Z,97015.97
2023-03-03T05:58:33.660Z,97020.63
2023-03-03T06:03:35.675Z,97018.41
2023-03-03T06:08:37.864Z,97025.41
2023-03-03T06:13:42.657Z,97023.91
2023-03-03T06:18:44.595Z,97042.50
2023-03-03T06:23:46.546Z,97040.63
2023-03-03T06:28:50.235Z,97061.53
2023-03-03T06:33:52.218Z,97066.97
2023-03-03T06:38:54.285Z,97082.84
2023-03-03T06:43:58.392Z,97086.72
2023-03-03T06:49:00.342Z,97106.00
2023-03-03T06:54:06.984Z,97118.22
2023-03-03T06:59:13.598Z,97121.34
2023-03-03T07:04:23.974Z,97129.16
2023-03-03T07:09:28.436Z,97123.00
2023-03-03T07:14:31.863Z,97126.09
2023-03-03T07:19:35.360Z,97108.59
2023-03-03T07:24:42.600Z,97097.59
2023-03-03T07:29:47.476Z,97102.91
2023-03-03T07:34:52.435Z,97094.50
2023-03-03T07:39:55.303Z,97109.78
2023-03-03T07:45:00.006Z,97106.72
2023-03-03T07:50:16.541Z,97093.34
2023-03-03T07:55:32.322Z,97053.16
2023-03-03T08:01:11.048Z,97042.28
2023-03-03T08:06:47.243Z,97043.72
2023-03-03T08:11:52.035Z,97059.41
2023-03-03T08:16:55.038Z,97054.81
2023-03-03T08:22:02.637Z,97056.97
2023-03-03T08:27:04.612Z,97056.22
2023-03-03T08:32:06.589Z,97061.06
2023-03-03T08:37:09.894Z,97079.69
2023-03-03T08:42:11.831Z,97092.41
2023-03-03T08:47:13.933Z,97103.19
2023-03-03T08:52:17.244Z,97110.25
2023-03-03T08:57:19.184Z,97087.97
2023-03-03T09:02:21.203Z,97096.72
2023-03-03T09:07:24.570Z,97105.19
2023-03-03T09:12:30.285Z,97115.56
2023-03-03T09:17:35.260Z,97109.88
2023-03-03T09:22:38.852Z,97125.75
2023-03-03T09:27:41.610Z,97138.38
2023-03-03T09:32:43.709Z,97135.69
2023-03-03T09:37:49.264Z,97119.72
2023-03-03T09:43:04.048Z,97128.28
2023-03-03T09:48:29.063Z,97125.59
2023-03-03T09:53:46.316Z,97126.81
2023-03-03T09:59:09.337Z,97125.25
2023-03-03T10:04:34.644Z,97124.41
2023-03-03T10:09:55.774Z,97129.44
2023-03-03T10:15:24.147Z,97130.69
2023-03-03T10:20:49.643Z,97121.00
2023-03-03T10:26:05.126Z,97114.75
2023-03-03T10:31:19.622Z,97132.94
2023-03-03T10:36:38.930Z,97126.78
2023-03-03T10:41:54.205Z,97141.09
2023-03-03T10:47:06.625Z,97135.31
2023-03-03T10:52:24.197Z,97125.25
2023-03-03T10:57:34.191Z,97143.06
2023-03-03T11:02:46.929Z,97153.53
2023-03-03T11:07:52.090Z,97157.84
2023-03-03T11:13:11.021Z,97152.38
2023-03-03T11:18:25.603Z,97152.81
2023-03-03T11:23:53.368Z,97152.41
2023-03-03T11:29:12.662Z,97145.50
2023-03-03T11:34:29.533Z,97159.03
2023-03-03T11:39:31.710Z,97151.28
2023-03-03T11:44:39.578Z,97154.38
2023-03-03T11:49:47.018Z,97160.22
2023-03-03T11:54:54.519Z,97154.03
2023-03-03T12:00:02.746Z,97159.47
2023-03-03T12:05:11.758Z,97158.28
2023-03-03T12:10:22.531Z,97147.44
2023-03-03T12:15:38.326Z,97138.91
2023-03-03T12:20:49.065Z,97154.00
2023-03-03T12:26:02.275Z,97144.72
2023-03-03T12:31:25.313Z,97145.47
2023-03-03T12:36:59.302Z,97143.56
2023-03-03T12:42:10.205Z,97140.84
2023-03-03T12:47:23.223Z,97134.22
2023-03-03T12:52:33.132Z,97127.25
2023-03-03T12:57:43.048Z,70918.97
2023-03-03T13:02:57.848Z,70918.97
2023-03-03T13:08:18.092Z,70918.97
2023-03-03T13:13:27.732Z,70918.97
2023-03-03T13:18:42.053Z,70918.97
2023-03-03T13:23:51.814Z,70918.97
2023-03-03T13:29:06.069Z,70918.97
2023-03-03T13:34:18.647Z,70918.97
2023-03-03T13:39:24.520Z,97108.13
2023-03-03T13:44:31.117Z,97099.25
2023-03-03T13:49:47.682Z,97097.94
2023-03-03T13:55:10.355Z,97087.16
2023-03-03T14:00:22.981Z,97090.97
2023-03-03T14:05:36.008Z,97091.53
2023-03-03T14:10:44.230Z,97092.31
2023-03-03T14:15:55.474Z,97097.38
2023-03-03T14:21:04.813Z,97091.59
2023-03-03T14:26:09.593Z,97082.66
2023-03-03T14:31:21.790Z,97087.28
2023-03-03T14:36:31.041Z,97094.72
2023-03-03T14:41:40.051Z,97084.66
2023-03-03T14:46:44.912Z,97089.72
2023-03-03T14:51:49.723Z,97076.50
2023-03-03T14:57:02.050Z,97086.22
2023-03-03T15:02:27.894Z,97085.06
2023-03-03T15:07:35.160Z,97094.78
2023-03-03T15:12:40.593Z,97086.25
2023-03-03T15:18:02.802Z,97080.81
2023-03-03T15:23:19.937Z,97086.97
2023-03-03T15:28:37.824Z,97078.50
2023-03-03T15:33:47.156Z,97086.25
2023-03-03T15:39:01.507Z,97090.00
2023-03-03T15:44:14.711Z,97086.53
2023-03-03T15:49:30.326Z,97079.56
2023-03-03T15:54:43.159Z,97085.41
2023-03-03T16:00:09.160Z,97088.13
2023-03-03T16:05:16.544Z,97090.09
2023-03-03T16:10:34.914Z,97086.22
2023-03-03T16:15:50.708Z,97083.53
2023-03-03T16:21:11.545Z,97094.34
2023-03-03T16:26:27.894Z,97097.50
2023-03-03T16:31:35.716Z,97092.78
2023-03-03T16:36:52.617Z,97098.59
2023-03-03T16:42:00.528Z,97102.53
2023-03-03T16:47:18.748Z,97102.94
2023-03-03T16:52:29.720Z,97110.25
2023-03-03T16:57:41.759Z,97114.13
2023-03-03T17:03:07.671Z,97123.88
2023-03-03T17:08:28.037Z,97121.16
2023-03-03T17:13:52.048Z,97127.31
2023-03-03T17:19:08.831Z,97126.94
2023-03-03T17:24:16.860Z,97135.84
2023-03-03T17:29:38.107Z,97133.13
2023-03-03T17:34:51.789Z,97117.66
2023-03-03T17:40:11.437Z,97117.66
2023-03-03T17:45:16.238Z,97122.22
2023-03-03T17:50:36.507Z,97121.06
2023-03-03T17:55:55.359Z,97129.22
2023-03-03T18:01:08.453Z,97135.81
2023-03-03T18:06:48.189Z,97134.66
2023-03-03T18:12:00.263Z,97130.06
2023-03-03T18:17:19.592Z,97130.06
2023-03-03T18:22:30.805Z,70918.97
2023-03-03T18:27:35.894Z,70918.97
2023-03-03T18:32:45.451Z,70918.97
2023-03-03T18:37:47.667Z,70918.97
2023-03-03T18:42:53.797Z,70918.97
2023-03-03T18:48:10.321Z,70918.97
2023-03-03T18:53:25.313Z,70918.97
2023-03-03T18:58:35.157Z,70918.97
2023-03-03T19:04:00.215Z,70918.97
2023-03-03T19:09:04.106Z,70918.97
2023-03-03T19:14:20.908Z,70918.97
2023-03-03T19:19:29.612Z,70918.97
2023-03-03T19:24:33.867Z,70918.97
2023-03-03T19:29:53.743Z,70918.97
2023-03-03T19:35:08.602Z,70918.97
2023-03-03T19:40:19.821Z,70918.97
2023-03-03T19:45:45.573Z,70918.97
2023-03-03T19:50:54.058Z,70918.97
2023-03-03T19:56:15.096Z,97130.06
2023-03-03T20:01:24.785Z,97094.03
2023-03-03T20:06:43.727Z,70918.97
2023-03-03T20:12:01.569Z,97093.56
2023-03-03T20:17:22.340Z,97097.41
2023-03-03T20:22:35.444Z,97105.19
2023-03-03T20:27:47.455Z,97095.91
2023-03-03T20:33:06.039Z,70918.97
2023-03-03T20:38:22.735Z,70918.97
2023-03-03T20:43:37.883Z,70918.97
2023-03-03T20:49:04.012Z,70918.97
2023-03-03T20:54:20.612Z,70918.97
2023-03-03T20:59:32.039Z,70918.97
2023-03-03T21:04:36.194Z,70918.97
2023-03-03T21:09:39.804Z,70918.97
2023-03-03T21:14:41.795Z,70918.97
2023-03-03T21:19:43.748Z,70918.97
2023-03-03T21:24:52.684Z,70918.97
2023-03-03T21:30:07.264Z,70918.97
2023-03-03T21:35:11.685Z,70918.97
2023-03-03T21:40:18.238Z,70918.97
2023-03-03T21:45:20.981Z,70918.97
2023-03-03T21:50:23.181Z,70918.97
2023-03-03T21:55:26.872Z,70918.97
2023-03-03T22:00:28.950Z,70918.97
2023-03-03T22:05:30.922Z,70918.97
2023-03-03T22:10:34.222Z,70918.97
2023-03-03T22:15:36.264Z,70918.97
2023-03-03T22:20:38.226Z,70918.97
2023-03-03T22:25:41.754Z,70918.97
2023-03-03T22:30:43.725Z,70918.97
2023-03-03T22:35:45.840Z,70918.97
2023-03-03T22:40:49.178Z,70918.97
2023-03-03T22:45:51.288Z,70918.97
2023-03-03T22:50:53.810Z,70918.97
2023-03-03T22:55:57.119Z,70918.97
2023-03-03T23:00:59.154Z,70918.97
2023-03-03T23:06:01.145Z,70918.97
2023-03-03T23:11:04.813Z,70918.97
2023-03-03T23:16:07.416Z,70918.97
2023-03-03T23:21:09.380Z,70918.97
2023-03-03T23:26:12.705Z,70918.97
2023-03-03T23:31:14.797Z,70918.97
2023-03-03T23:36:16.750Z,70918.97
2023-03-03T23:41:20.077Z,70918.97
2023-03-03T23:46:22.067Z,70918.97
2023-03-03T23:51:24.082Z,70918.97
2023-03-03T23:56:27.473Z,70918.97
